Time;durP1;ratioP1;P1;durP2;ratioP2;P2;SDS_P1;SDS_P2;PMS_P1;PMS_P2;Temp;Humidity;BMP_temperature;BMP_pressure;BME280_temperature;BME280_humidity;BME280_pressure;Samples;Min_cycle;Max_cycle;Signal;HPM_P1;HPM_P2
2023/07/01 00:01:36;;;;;;;3.63;3.33;;;;;;;;;;5094831;28;20570;-58
2023/07/01 00:04:03;;;;;;;4.07;3.60;;;;;;;;;;5094773;28;20561;-58
2023/07/01 00:06:30;;;;;;;5.50;3.50;;;;;;;;;;5094637;28;20454;-58
2023/07/01 00:08:57;;;;;;;3.53;3.33;;;;;;;;;;5094467;28;20541;-58
2023/07/01 00:11:24;;;;;;;3.70;3.50;;;;;;;;;;5094827;28;21052;-58
2023/07/01 00:13:51;;;;;;;3.30;3.10;;;;;;;;;;5094800;28;20481;-57
2023/07/01 00:16:18;;;;;;;3.80;3.50;;;;;;;;;;5094443;28;20485;-56
2023/07/01 00:18:46;;;;;;;4.10;3.70;;;;;;;;;;5094431;28;20481;-57
2023/07/01 00:21:13;;;;;;;3.13;3.03;;;;;;;;;;5094276;28;20538;-57
2023/07/01 00:23:40;;;;;;;3.60;3.40;;;;;;;;;;5094192;28;20450;-54
2023/07/01 00:26:08;;;;;;;3.47;3.17;;;;;;;;;;5094411;28;20504;-56
2023/07/01 00:28:35;;;;;;;2.97;2.77;;;;;;;;;;5094309;28;20493;-57
2023/07/01 00:31:02;;;;;;;3.80;3.60;;;;;;;;;;5094004;28;20550;-56
2023/07/01 00:33:29;;;;;;;3.73;3.53;;;;;;;;;;5094341;28;20454;-57
2023/07/01 00:35:57;;;;;;;3.90;3.70;;;;;;;;;;5094050;28;20501;-56
2023/07/01 00:38:24;;;;;;;3.63;3.43;;;;;;;;;;5094381;28;20454;-56
2023/07/01 00:40:51;;;;;;;4.27;3.97;;;;;;;;;;5094276;28;20553;-55
2023/07/01 00:43:18;;;;;;;3.73;3.30;;;;;;;;;;5094189;28;20544;-56
2023/07/01 00:45:44;;;;;;;3.57;3.27;;;;;;;;;;5094029;28;20507;-56
2023/07/01 00:48:19;;;;;;;4.10;3.70;;;;;;;;;;5093883;28;20873;-56
2023/07/01 00:50:46;;;;;;;4.53;4.23;;;;;;;;;;5093676;28;20485;-56
2023/07/01 00:53:14;;;;;;;4.03;3.63;;;;;;;;;;5093746;28;20518;-56
2023/07/01 00:55:41;;;;;;;4.50;4.20;;;;;;;;;;5093579;28;20571;-56
2023/07/01 00:58:08;;;;;;;4.53;4.13;;;;;;;;;;5093712;28;20867;-56
2023/07/01 01:00:35;;;;;;;6.63;4.47;;;;;;;;;;5093622;28;20476;-56
2023/07/01 01:03:06;;;;;;;5.47;5.07;;;;;;;;;;5093518;28;21004;-56
2023/07/01 01:05:36;;;;;;;4.50;4.10;;;;;;;;;;5093787;28;20544;-56
2023/07/01 01:08:06;;;;;;;3.60;3.40;;;;;;;;;;5093549;28;20458;-56
2023/07/01 01:10:34;;;;;;;4.87;4.40;;;;;;;;;;5093486;28;20598;-57
2023/07/01 01:13:03;;;;;;;4.30;3.87;;;;;;;;;;5093446;28;20936;-56
2023/07/01 01:15:30;;;;;;;3.47;3.27;;;;;;;;;;5093249;28;20511;-57
2023/07/01 01:17:59;;;;;;;3.70;3.40;;;;;;;;;;5093588;28;20541;-57
2023/07/01 01:20:28;;;;;;;4.53;4.23;;;;;;;;;;5093409;28;20443;-57
2023/07/01 01:22:57;;;;;;;4.77;4.37;;;;;;;;;;5093317;28;20446;-57
2023/07/01 01:25:29;;;;;;;3.80;3.53;;;;;;;;;;5093224;28;20452;-57
2023/07/01 01:27:58;;;;;;;3.87;3.67;;;;;;;;;;5093209;28;20506;-56
2023/07/01 01:30:25;;;;;;;4.57;4.27;;;;;;;;;;5093346;28;20545;-57
2023/07/01 01:32:52;;;;;;;5.00;3.90;;;;;;;;;;5093244;28;20538;-57
2023/07/01 01:35:19;;;;;;;4.30;3.90;;;;;;;;;;5093209;28;20520;-57
2023/07/01 01:37:49;;;;;;;5.10;4.70;;;;;;;;;;5093107;28;20544;-56
2023/07/01 01:40:19;;;;;;;5.50;4.00;;;;;;;;;;5092996;28;20545;-55
2023/07/01 01:42:47;;;;;;;4.53;4.23;;;;;;;;;;5092935;28;20446;-56
2023/07/01 01:45:16;;;;;;;5.53;3.83;;;;;;;;;;5093147;28;20476;-56
2023/07/01 01:47:43;;;;;;;4.50;4.10;;;;;;;;;;5093160;28;20548;-57
2023/07/01 01:50:11;;;;;;;3.80;3.60;;;;;;;;;;5093007;28;20847;-57
2023/07/01 01:52:40;;;;;;;4.20;3.80;;;;;;;;;;5093107;28;20537;-56
2023/07/01 01:55:09;;;;;;;4.30;4.00;;;;;;;;;;5092596;28;20445;-57
2023/07/01 01:57:36;;;;;;;3.60;3.30;;;;;;;;;;5093053;28;20907;-56
2023/07/01 02:00:08;;;;;;;4.13;3.83;;;;;;;;;;5092793;28;20545;-57
2023/07/01 02:02:36;;;;;;;3.70;3.47;;;;;;;;;;5093587;28;20473;-57
2023/07/01 02:05:03;;;;;;;4.20;3.90;;;;;;;;;;5096908;28;20544;-56
2023/07/01 02:07:30;;;;;;;4.30;4.00;;;;;;;;;;5097049;28;20888;-56
2023/07/01 02:09:57;;;;;;;4.30;3.90;;;;;;;;;;5096811;28;20476;-56
2023/07/01 02:12:25;;;;;;;3.73;3.53;;;;;;;;;;5097007;28;20536;-56
2023/07/01 02:14:52;;;;;;;4.00;3.80;;;;;;;;;;5097219;28;20445;-56
2023/07/01 02:17:19;;;;;;;4.00;3.70;;;;;;;;;;5096707;28;20577;-57
2023/07/01 02:19:47;;;;;;;5.00;4.30;;;;;;;;;;5096639;28;20541;-57
2023/07/01 02:22:15;;;;;;;4.30;4.00;;;;;;;;;;5096562;28;20881;-57
2023/07/01 02:24:41;;;;;;;4.67;4.20;;;;;;;;;;5096797;28;20545;-56
2023/07/01 02:27:09;;;;;;;4.20;3.90;;;;;;;;;;5096730;28;20540;-56
2023/07/01 02:29:36;;;;;;;4.90;4.60;;;;;;;;;;5096588;28;20453;-57
2023/07/01 02:32:03;;;;;;;4.43;4.20;;;;;;;;;;5096539;28;20488;-56
2023/07/01 02:34:30;;;;;;;4.10;3.73;;;;;;;;;;5096428;28;21005;-57
2023/07/01 02:36:58;;;;;;;4.40;4.00;;;;;;;;;;5096190;28;20580;-57
2023/07/01 02:39:25;;;;;;;4.70;4.40;;;;;;;;;;5096463;28;20545;-57
2023/07/01 02:41:52;;;;;;;5.30;4.50;;;;;;;;;;5096388;28;20540;-57
2023/07/01 02:44:19;;;;;;;5.37;4.97;;;;;;;;;;5096378;28;20817;-57
2023/07/01 02:46:46;;;;;;;4.80;4.40;;;;;;;;;;5096173;28;20499;-59
2023/07/01 02:49:13;;;;;;;4.77;4.47;;;;;;;;;;5096077;28;20891;-57
2023/07/01 02:51:41;;;;;;;5.80;4.10;;;;;;;;;;5096309;28;20541;-57
2023/07/01 02:54:09;;;;;;;5.90;4.23;;;;;;;;;;5096165;28;20450;-57
2023/07/01 02:56:36;;;;;;;4.63;4.33;;;;;;;;;;5094944;28;20513;-56
2023/07/01 02:59:04;;;;;;;3.90;3.70;;;;;;;;;;5094806;28;20540;-56
2023/07/01 03:01:31;;;;;;;7.43;4.17;;;;;;;;;;5094750;28;20456;-56
2023/07/01 03:03:58;;;;;;;4.20;3.90;;;;;;;;;;5094520;28;20537;-57
2023/07/01 03:06:26;;;;;;;4.50;4.20;;;;;;;;;;5094787;28;20490;-57
2023/07/01 03:08:53;;;;;;;4.47;4.17;;;;;;;;;;5094508;28;20973;-57
2023/07/01 03:11:21;;;;;;;4.63;4.33;;;;;;;;;;5094594;28;20528;-56
2023/07/01 03:13:48;;;;;;;4.97;4.57;;;;;;;;;;5094175;28;20852;-57
2023/07/01 03:16:15;;;;;;;5.30;4.80;;;;;;;;;;5094277;28;20481;-57
2023/07/01 03:18:42;;;;;;;4.13;3.80;;;;;;;;;;5094345;28;20477;-57
2023/07/01 03:21:09;;;;;;;4.83;4.53;;;;;;;;;;5094696;28;20477;-56
2023/07/01 03:23:36;;;;;;;4.90;4.60;;;;;;;;;;5094423;28;20538;-56
2023/07/01 03:26:03;;;;;;;5.63;5.13;;;;;;;;;;5094421;28;20541;-58
2023/07/01 03:28:31;;;;;;;4.80;4.43;;;;;;;;;;5094260;28;21064;-57
2023/07/01 03:30:59;;;;;;;4.53;4.23;;;;;;;;;;5094171;28;20453;-56
2023/07/01 03:33:26;;;;;;;5.00;4.50;;;;;;;;;;5094319;28;20452;-57
2023/07/01 03:35:53;;;;;;;4.90;4.60;;;;;;;;;;5094287;28;20538;-57
2023/07/01 03:38:20;;;;;;;4.60;4.40;;;;;;;;;;5094164;28;20912;-56
2023/07/01 03:40:47;;;;;;;4.97;4.57;;;;;;;;;;5094183;28;20478;-57
2023/07/01 03:43:14;;;;;;;5.13;4.73;;;;;;;;;;5094131;28;20458;-57
2023/07/01 03:45:42;;;;;;;4.40;4.10;;;;;;;;;;5093899;28;20519;-57
2023/07/01 03:48:09;;;;;;;5.33;4.93;;;;;;;;;;5094098;28;20873;-56
2023/07/01 03:50:36;;;;;;;4.80;4.37;;;;;;;;;;5093959;28;21004;-57
2023/07/01 03:53:03;;;;;;;4.73;4.37;;;;;;;;;;5093949;28;20542;-57
2023/07/01 03:57:40;;;;;;;4.37;4.10;;;;;;;;;;5090265;27;20506;-56
2023/07/01 04:00:15;;;;;;;4.60;4.03;;;;;;;;;;5070106;28;20546;-58
2023/07/01 04:02:42;;;;;;;4.30;4.10;;;;;;;;;;5070363;28;20454;-58
2023/07/01 04:05:10;;;;;;;4.77;4.47;;;;;;;;;;5070230;28;20483;-58
2023/07/01 04:07:37;;;;;;;4.63;4.33;;;;;;;;;;5070072;28;20465;-58
2023/07/01 04:10:05;;;;;;;6.43;5.87;;;;;;;;;;5070076;28;20452;-59
2023/07/01 04:12:33;;;;;;;4.53;4.13;;;;;;;;;;5069817;28;20447;-59
2023/07/01 04:15:01;;;;;;;5.13;4.60;;;;;;;;;;5070015;28;20456;-58
2023/07/01 04:17:29;;;;;;;5.57;5.27;;;;;;;;;;5069902;28;20487;-58
2023/07/01 04:19:57;;;;;;;4.73;4.43;;;;;;;;;;5069687;28;20510;-58
2023/07/01 04:22:23;;;;;;;4.53;4.27;;;;;;;;;;5069788;28;20539;-56
2023/07/01 04:24:50;;;;;;;5.37;4.83;;;;;;;;;;5069695;28;20443;-55
2023/07/01 04:27:17;;;;;;;4.80;4.50;;;;;;;;;;5069562;28;20539;-58
2023/07/01 04:29:44;;;;;;;4.67;4.47;;;;;;;;;;5069753;28;20883;-57
2023/07/01 04:32:12;;;;;;;5.20;4.90;;;;;;;;;;5069712;28;20534;-58
2023/07/01 04:34:39;;;;;;;5.40;4.90;;;;;;;;;;5069563;28;20545;-58
2023/07/01 04:37:06;;;;;;;4.93;4.53;;;;;;;;;;5069400;28;20531;-58
2023/07/01 04:39:33;;;;;;;4.93;4.60;;;;;;;;;;5069269;28;20538;-58
2023/07/01 04:42:00;;;;;;;5.27;4.70;;;;;;;;;;5069193;28;20539;-58
2023/07/01 04:44:27;;;;;;;5.03;4.63;;;;;;;;;;5069221;28;21010;-58
2023/07/01 04:46:54;;;;;;;5.97;5.47;;;;;;;;;;5069372;28;20552;-58
2023/07/01 04:49:22;;;;;;;5.20;4.80;;;;;;;;;;5069058;28;20971;-58
2023/07/01 04:51:49;;;;;;;7.93;5.40;;;;;;;;;;5069174;28;20541;-58
2023/07/01 04:54:16;;;;;;;5.60;5.10;;;;;;;;;;5068885;28;20531;-58
2023/07/01 04:56:43;;;;;;;5.17;4.83;;;;;;;;;;5056435;28;20601;-58
2023/07/01 04:59:10;;;;;;;7.63;5.43;;;;;;;;;;5049230;28;20547;-57
2023/07/01 05:01:37;;;;;;;6.17;5.67;;;;;;;;;;5049138;28;20539;-58
2023/07/01 05:04:04;;;;;;;6.80;5.43;;;;;;;;;;5048953;28;20490;-58
2023/07/01 05:06:32;;;;;;;6.17;5.60;;;;;;;;;;5048871;28;20452;-58
2023/07/01 05:08:59;;;;;;;5.37;4.97;;;;;;;;;;5035528;28;20472;-59
2023/07/01 05:11:27;;;;;;;5.47;5.07;;;;;;;;;;5035738;28;20492;-58
2023/07/01 05:13:54;;;;;;;6.07;5.67;;;;;;;;;;5035516;28;20535;-57
2023/07/01 05:16:21;;;;;;;5.63;5.20;;;;;;;;;;5035516;28;20568;-58
2023/07/01 05:18:48;;;;;;;6.23;5.63;;;;;;;;;;5035415;28;20960;-58
2023/07/01 05:21:15;;;;;;;7.07;6.00;;;;;;;;;;5035443;28;20539;-58
2023/07/01 05:23:43;;;;;;;5.50;5.10;;;;;;;;;;5035274;28;20530;-58
2023/07/01 05:26:10;;;;;;;5.93;5.43;;;;;;;;;;5035532;28;20452;-58
2023/07/01 05:28:37;;;;;;;7.67;6.47;;;;;;;;;;5035406;28;20496;-58
2023/07/01 05:31:04;;;;;;;7.53;6.20;;;;;;;;;;5035333;28;20453;-58
2023/07/01 05:33:31;;;;;;;6.67;6.13;;;;;;;;;;5035283;28;20450;-58
2023/07/01 05:35:58;;;;;;;6.67;6.10;;;;;;;;;;5034984;28;20528;-57
2023/07/01 05:38:25;;;;;;;8.13;6.40;;;;;;;;;;5035333;28;20541;-57
2023/07/01 05:40:53;;;;;;;4.90;4.60;;;;;;;;;;5035389;28;20481;-56
2023/07/01 05:43:20;;;;;;;6.20;5.70;;;;;;;;;;5035096;28;20536;-57
2023/07/01 05:45:47;;;;;;;6.30;5.43;;;;;;;;;;5035042;28;20454;-57
2023/07/01 05:48:14;;;;;;;5.57;5.27;;;;;;;;;;5034914;28;20971;-57
2023/07/01 05:50:41;;;;;;;5.93;5.47;;;;;;;;;;5034783;28;20457;-57
2023/07/01 05:53:09;;;;;;;8.03;6.07;;;;;;;;;;5034900;28;20548;-56
2023/07/01 05:55:36;;;;;;;6.10;5.60;;;;;;;;;;5034589;28;20512;-58
2023/07/01 05:58:04;;;;;;;5.70;5.30;;;;;;;;;;5034830;28;20495;-58
2023/07/01 06:00:31;;;;;;;7.43;5.80;;;;;;;;;;5034735;28;20579;-58
2023/07/01 06:02:58;;;;;;;6.50;5.37;;;;;;;;;;5034638;28;20489;-58
2023/07/01 06:05:25;;;;;;;4.97;4.60;;;;;;;;;;5034511;28;20496;-57
2023/07/01 06:07:52;;;;;;;7.47;5.50;;;;;;;;;;5034644;28;20544;-58
2023/07/01 06:10:19;;;;;;;5.97;5.20;;;;;;;;;;5034534;28;20496;-58
2023/07/01 06:12:46;;;;;;;5.17;4.67;;;;;;;;;;5034382;28;20481;-58
2023/07/01 06:15:14;;;;;;;4.90;4.60;;;;;;;;;;5034472;28;20805;-58
2023/07/01 06:17:41;;;;;;;4.90;4.50;;;;;;;;;;5034171;28;20889;-57
2023/07/01 06:20:09;;;;;;;5.23;4.83;;;;;;;;;;5033486;28;20494;-58
2023/07/01 06:22:36;;;;;;;4.70;4.33;;;;;;;;;;5034413;28;20540;-57
2023/07/01 06:25:03;;;;;;;4.30;4.10;;;;;;;;;;5034368;28;20544;-58
2023/07/01 06:27:30;;;;;;;5.90;5.33;;;;;;;;;;5034211;28;21032;-58
2023/07/01 06:29:57;;;;;;;4.83;4.53;;;;;;;;;;5034167;28;20456;-58
2023/07/01 06:32:25;;;;;;;4.83;3.90;;;;;;;;;;5033997;28;21025;-57
2023/07/01 06:34:52;;;;;;;4.90;4.30;;;;;;;;;;5034140;28;20544;-58
2023/07/01 06:37:19;;;;;;;4.63;4.13;;;;;;;;;;5033973;28;20521;-58
2023/07/01 06:39:46;;;;;;;12.20;4.50;;;;;;;;;;5034032;28;20545;-57
2023/07/01 06:42:13;;;;;;;4.43;4.20;;;;;;;;;;5034363;28;20528;-57
2023/07/01 06:44:40;;;;;;;4.90;4.57;;;;;;;;;;5033730;28;20809;-57
2023/07/01 06:47:07;;;;;;;4.37;4.07;;;;;;;;;;5033763;28;20545;-58
2023/07/01 06:49:35;;;;;;;4.07;3.80;;;;;;;;;;5033809;28;20548;-58
2023/07/01 06:52:02;;;;;;;4.57;4.07;;;;;;;;;;5033600;28;20484;-58
2023/07/01 06:54:29;;;;;;;5.97;3.70;;;;;;;;;;5033710;28;20536;-58
2023/07/01 06:56:56;;;;;;;4.03;3.73;;;;;;;;;;5033282;28;20841;-58
2023/07/01 06:59:23;;;;;;;5.73;3.80;;;;;;;;;;5033110;28;20540;-58
2023/07/01 07:01:50;;;;;;;4.17;3.80;;;;;;;;;;5033367;28;20454;-57
2023/07/01 07:04:17;;;;;;;5.00;3.53;;;;;;;;;;5033554;28;20536;-58
2023/07/01 07:06:45;;;;;;;3.97;3.43;;;;;;;;;;5033467;28;20532;-58
2023/07/01 07:09:12;;;;;;;5.60;2.97;;;;;;;;;;5033319;28;20452;-57
2023/07/01 07:11:40;;;;;;;3.10;2.80;;;;;;;;;;5033341;28;20980;-57
2023/07/01 07:14:07;;;;;;;3.83;2.70;;;;;;;;;;5033766;28;20456;-58
2023/07/01 07:16:34;;;;;;;2.63;2.53;;;;;;;;;;5033120;28;20543;-58
2023/07/01 07:19:01;;;;;;;4.23;2.90;;;;;;;;;;5033380;28;20485;-57
2023/07/01 07:21:28;;;;;;;2.50;2.30;;;;;;;;;;5033303;28;20544;-56
2023/07/01 07:23:56;;;;;;;3.90;2.07;;;;;;;;;;5033143;28;20446;-58
2023/07/01 07:26:23;;;;;;;2.93;2.07;;;;;;;;;;5032839;28;20548;-56
2023/07/01 07:28:50;;;;;;;2.40;2.20;;;;;;;;;;5033147;28;20453;-56
2023/07/01 07:31:17;;;;;;;2.50;2.30;;;;;;;;;;5032879;28;20543;-57
2023/07/01 07:33:44;;;;;;;2.80;2.37;;;;;;;;;;5033117;28;20889;-57
2023/07/01 07:36:11;;;;;;;2.63;2.13;;;;;;;;;;5033022;28;20481;-57
2023/07/01 07:38:38;;;;;;;5.43;1.80;;;;;;;;;;5032862;28;20623;-57
2023/07/01 07:41:07;;;;;;;2.13;2.03;;;;;;;;;;5032773;28;20537;-56
2023/07/01 07:43:34;;;;;;;3.33;2.13;;;;;;;;;;5033119;28;20545;-57
2023/07/01 07:46:01;;;;;;;2.57;1.80;;;;;;;;;;5032951;28;20456;-57
2023/07/01 07:48:28;;;;;;;2.27;2.10;;;;;;;;;;5032879;28;20548;-56
2023/07/01 07:50:55;;;;;;;2.20;1.97;;;;;;;;;;5032852;28;20881;-56
2023/07/01 07:53:22;;;;;;;3.13;2.93;;;;;;;;;;5032620;28;20540;-56
2023/07/01 07:55:49;;;;;;;3.77;2.10;;;;;;;;;;5032499;28;21036;-56
2023/07/01 07:58:17;;;;;;;2.20;2.00;;;;;;;;;;5032786;28;20492;-57
2023/07/01 08:00:44;;;;;;;2.10;2.00;;;;;;;;;;5032862;28;20922;-55
2023/07/01 08:03:11;;;;;;;4.07;1.80;;;;;;;;;;5032723;28;20456;-56
2023/07/01 08:05:38;;;;;;;1.90;1.70;;;;;;;;;;5032596;28;20548;-58
2023/07/01 08:08:05;;;;;;;3.00;1.70;;;;;;;;;;5032600;28;20450;-57
2023/07/01 08:10:32;;;;;;;2.03;1.93;;;;;;;;;;5032816;28;20549;-57
2023/07/01 08:12:59;;;;;;;3.80;1.60;;;;;;;;;;5032703;28;20546;-56
2023/07/01 08:15:27;;;;;;;2.23;2.13;;;;;;;;;;5032509;28;20953;-55
2023/07/01 08:17:54;;;;;;;2.23;1.80;;;;;;;;;;5032566;28;20568;-56
2023/07/01 08:20:23;;;;;;;2.23;1.97;;;;;;;;;;5032488;28;20536;-57
2023/07/01 08:22:49;;;;;;;2.13;1.93;;;;;;;;;;5032385;28;20454;-57
2023/07/01 08:25:16;;;;;;;1.90;1.80;;;;;;;;;;5032706;28;20442;-57
2023/07/01 08:27:43;;;;;;;1.93;1.73;;;;;;;;;;5032418;28;21024;-56
2023/07/01 08:30:11;;;;;;;2.50;1.97;;;;;;;;;;5032448;28;20508;-56
2023/07/01 08:32:40;;;;;;;1.93;1.83;;;;;;;;;;5032368;28;20453;-56
2023/07/01 08:35:07;;;;;;;1.80;1.70;;;;;;;;;;5032231;28;20450;-57
2023/07/01 08:37:34;;;;;;;1.97;1.77;;;;;;;;;;5032471;28;20570;-56
2023/07/01 08:40:02;;;;;;;1.87;1.77;;;;;;;;;;5032752;28;20536;-56
2023/07/01 08:42:33;;;;;;;2.20;2.00;;;;;;;;;;5032941;28;20453;-57
2023/07/01 08:45:01;;;;;;;3.50;2.00;;;;;;;;;;5036098;28;20542;-57
2023/07/01 08:47:28;;;;;;;1.93;1.83;;;;;;;;;;5035979;28;21139;-57
2023/07/01 08:49:57;;;;;;;3.90;2.30;;;;;;;;;;5035923;28;20544;-56
2023/07/01 08:52:23;;;;;;;1.73;1.63;;;;;;;;;;5036032;28;20532;-57
2023/07/01 08:54:51;;;;;;;1.60;1.50;;;;;;;;;;5036004;28;20477;-57
2023/07/01 08:57:19;;;;;;;2.03;1.93;;;;;;;;;;5035657;28;20507;-57
2023/07/01 08:59:48;;;;;;;1.97;1.50;;;;;;;;;;5035794;28;20539;-57
2023/07/01 09:02:15;;;;;;;1.70;1.60;;;;;;;;;;5035627;28;20540;-57
2023/07/01 09:04:42;;;;;;;1.80;1.70;;;;;;;;;;5035732;28;20523;-58
2023/07/01 09:07:10;;;;;;;1.77;1.67;;;;;;;;;;5035824;28;20548;-57
2023/07/01 09:09:39;;;;;;;3.20;2.07;;;;;;;;;;5035735;28;20461;-58
2023/07/01 09:12:06;;;;;;;2.80;2.60;;;;;;;;;;5035636;28;20460;-57
2023/07/01 09:14:48;;;;;;;2.10;1.70;;;;;;;;;;5035579;28;20548;-57
2023/07/01 09:17:26;;;;;;;5.73;2.10;;;;;;;;;;5034750;28;20956;-57
2023/07/01 09:19:53;;;;;;;1.80;1.47;;;;;;;;;;5035588;28;20448;-57
2023/07/01 09:22:21;;;;;;;3.57;1.90;;;;;;;;;;5035500;28;20537;-57
2023/07/01 09:24:48;;;;;;;2.80;1.83;;;;;;;;;;5035246;28;20544;-57
2023/07/01 09:27:15;;;;;;;2.63;1.70;;;;;;;;;;5035177;28;20533;-56
2023/07/01 09:29:42;;;;;;;1.70;1.60;;;;;;;;;;5035379;28;20553;-57
2023/07/01 09:32:09;;;;;;;2.27;1.60;;;;;;;;;;5035245;28;20553;-58
2023/07/01 09:34:55;;;;;;;2.27;1.90;;;;;;;;;;5035290;28;20449;-57
2023/07/01 09:37:24;;;;;;;4.20;1.60;;;;;;;;;;5035091;28;20477;-57
2023/07/01 09:39:51;;;;;;;3.23;2.00;;;;;;;;;;5034896;28;20543;-58
2023/07/01 09:42:18;;;;;;;1.97;1.87;;;;;;;;;;5035100;28;20905;-57
2023/07/01 09:45:04;;;;;;;3.83;1.50;;;;;;;;;;5035117;28;20460;-57
2023/07/01 09:47:31;;;;;;;2.87;1.90;;;;;;;;;;5035047;28;20485;-57
2023/07/01 09:49:58;;;;;;;1.60;1.50;;;;;;;;;;5035344;28;20601;-57
2023/07/01 09:52:33;;;;;;;3.33;1.67;;;;;;;;;;5034722;28;20545;-57
2023/07/01 09:55:01;;;;;;;3.07;2.27;;;;;;;;;;5034712;28;20480;-57
2023/07/01 09:57:28;;;;;;;1.80;1.70;;;;;;;;;;5034488;28;20493;-57
2023/07/01 09:59:56;;;;;;;2.47;2.27;;;;;;;;;;5034733;28;20989;-57
2023/07/01 10:02:23;;;;;;;2.50;1.60;;;;;;;;;;5034651;28;20450;-57
2023/07/01 10:04:50;;;;;;;1.83;1.40;;;;;;;;;;5034517;28;20805;-57
2023/07/01 10:07:17;;;;;;;2.40;1.87;;;;;;;;;;5034645;28;20821;-57
2023/07/01 10:09:46;;;;;;;2.20;2.00;;;;;;;;;;5034578;28;20544;-57
2023/07/01 10:12:14;;;;;;;2.27;1.73;;;;;;;;;;5034527;28;20454;-57
2023/07/01 10:14:42;;;;;;;2.57;2.37;;;;;;;;;;5034248;28;20524;-57
2023/07/01 10:17:09;;;;;;;1.90;1.80;;;;;;;;;;5033929;28;20449;-57
2023/07/01 10:19:37;;;;;;;2.90;1.80;;;;;;;;;;5034376;28;20583;-57
2023/07/01 10:22:23;;;;;;;1.53;1.43;;;;;;;;;;5034190;28;20450;-57
2023/07/01 10:25:01;;;;;;;3.30;2.00;;;;;;;;;;5034340;28;20449;-57
2023/07/01 10:27:49;;;;;;;3.60;2.20;;;;;;;;;;5034277;28;20450;-57
2023/07/01 10:30:16;;;;;;;2.03;1.80;;;;;;;;;;5001057;28;20490;-57
2023/07/01 10:32:43;;;;;;;1.90;1.73;;;;;;;;;;5034158;28;20450;-57
2023/07/01 10:35:15;;;;;;;6.30;1.80;;;;;;;;;;5034002;28;20553;-56
2023/07/01 10:37:42;;;;;;;3.27;2.20;;;;;;;;;;5033902;28;20477;-57
2023/07/01 10:40:27;;;;;;;2.17;2.00;;;;;;;;;;5033625;28;20485;-57
2023/07/01 10:43:15;;;;;;;3.97;2.10;;;;;;;;;;5033861;28;20550;-56
2023/07/01 10:45:44;;;;;;;2.40;2.10;;;;;;;;;;5033752;28;20894;-57
2023/07/01 10:48:14;;;;;;;5.87;2.00;;;;;;;;;;5033790;28;20540;-57
2023/07/01 10:50:56;;;;;;;3.23;1.63;;;;;;;;;;5033545;28;20449;-57
2023/07/01 10:53:23;;;;;;;1.70;1.60;;;;;;;;;;5033194;28;20449;-57
2023/07/01 10:55:50;;;;;;;1.80;1.70;;;;;;;;;;5033571;28;20556;-57
2023/07/01 10:58:21;;;;;;;5.43;1.87;;;;;;;;;;5033520;28;20473;-57
2023/07/01 11:00:49;;;;;;;1.83;1.37;;;;;;;;;;5033625;28;20786;-57
2023/07/01 11:03:38;;;;;;;1.60;1.40;;;;;;;;;;5033400;28;20442;-57
2023/07/01 11:06:06;;;;;;;2.03;1.87;;;;;;;;;;5032382;28;20528;-57
2023/07/01 11:08:34;;;;;;;2.07;1.57;;;;;;;;;;5033480;28;20544;-57
2023/07/01 11:11:03;;;;;;;1.80;1.70;;;;;;;;;;5033389;28;20779;-57
2023/07/01 11:13:30;;;;;;;2.83;1.70;;;;;;;;;;5033157;28;20553;-57
2023/07/01 11:16:03;;;;;;;2.00;1.73;;;;;;;;;;5033410;28;20446;-57
2023/07/01 11:18:40;;;;;;;2.03;1.80;;;;;;;;;;5033403;28;20509;-57
2023/07/01 11:21:08;;;;;;;1.80;1.70;;;;;;;;;;5033056;28;20944;-57
2023/07/01 11:23:35;;;;;;;1.60;1.40;;;;;;;;;;5033183;28;20485;-58
2023/07/01 11:26:02;;;;;;;2.03;1.87;;;;;;;;;;5033015;28;20549;-57
2023/07/01 11:28:32;;;;;;;4.50;1.90;;;;;;;;;;5033317;28;20548;-57
2023/07/01 11:31:10;;;;;;;1.70;1.60;;;;;;;;;;5033064;28;20942;-57
2023/07/01 11:33:37;;;;;;;2.03;1.80;;;;;;;;;;5033192;28;20967;-57
2023/07/01 11:36:04;;;;;;;2.07;1.97;;;;;;;;;;5033028;28;20545;-58
2023/07/01 11:38:31;;;;;;;2.07;1.67;;;;;;;;;;5032823;28;20904;-57
2023/07/01 11:40:58;;;;;;;5.63;2.00;;;;;;;;;;5033081;28;20515;-57
2023/07/01 11:43:27;;;;;;;3.97;1.80;;;;;;;;;;5033079;28;20544;-58
2023/07/01 11:45:54;;;;;;;3.30;2.03;;;;;;;;;;5032882;28;20474;-58
2023/07/01 11:48:31;;;;;;;2.57;2.37;;;;;;;;;;5032745;28;20484;-58
2023/07/01 11:50:58;;;;;;;2.07;1.97;;;;;;;;;;5032697;28;20449;-58
2023/07/01 11:53:27;;;;;;;2.23;1.60;;;;;;;;;;5032996;28;20532;-57
2023/07/01 11:55:56;;;;;;;3.40;1.43;;;;;;;;;;5032676;28;20549;-57
2023/07/01 11:58:29;;;;;;;1.80;1.70;;;;;;;;;;5032701;28;20532;-57
2023/07/01 12:00:57;;;;;;;2.00;1.77;;;;;;;;;;5032648;28;20454;-56
2023/07/01 12:03:24;;;;;;;2.13;1.97;;;;;;;;;;5032491;28;20453;-57
2023/07/01 12:05:52;;;;;;;3.37;1.90;;;;;;;;;;5032826;28;20940;-58
2023/07/01 12:08:19;;;;;;;3.30;1.97;;;;;;;;;;5032670;28;20540;-56
2023/07/01 12:10:46;;;;;;;3.93;1.80;;;;;;;;;;5032564;28;21039;-57
2023/07/01 12:13:29;;;;;;;1.90;1.80;;;;;;;;;;5032681;28;20477;-57
2023/07/01 12:15:56;;;;;;;4.57;2.77;;;;;;;;;;5032448;28;20941;-57
2023/07/01 12:18:26;;;;;;;3.73;1.97;;;;;;;;;;5034822;28;20568;-57
2023/07/01 12:20:54;;;;;;;1.60;1.50;;;;;;;;;;5036644;28;20842;-58
2023/07/01 12:23:21;;;;;;;3.00;2.27;;;;;;;;;;5036538;28;20535;-57
2023/07/01 12:25:49;;;;;;;2.50;2.30;;;;;;;;;;5036389;28;20499;-57
2023/07/01 12:28:16;;;;;;;4.43;2.47;;;;;;;;;;5036404;28;20458;-57
2023/07/01 12:30:43;;;;;;;2.70;2.50;;;;;;;;;;5036333;28;20564;-57
2023/07/01 12:33:10;;;;;;;2.30;2.10;;;;;;;;;;5036292;28;20835;-58
2023/07/01 12:35:37;;;;;;;2.90;2.40;;;;;;;;;;5036386;28;20813;-58
2023/07/01 12:38:05;;;;;;;5.30;2.93;;;;;;;;;;5035996;28;20548;-58
2023/07/01 12:40:32;;;;;;;2.20;1.97;;;;;;;;;;5036099;28;20454;-58
2023/07/01 12:42:59;;;;;;;2.13;2.03;;;;;;;;;;5036065;28;20449;-58
2023/07/01 12:45:26;;;;;;;2.13;1.70;;;;;;;;;;5036166;28;20540;-57
2023/07/01 12:47:54;;;;;;;2.77;2.20;;;;;;;;;;5036211;28;20879;-57
2023/07/01 12:50:21;;;;;;;2.17;1.97;;;;;;;;;;5036086;28;20461;-57
2023/07/01 12:52:51;;;;;;;2.20;2.00;;;;;;;;;;5035904;28;20553;-57
2023/07/01 12:55:20;;;;;;;2.63;2.43;;;;;;;;;;5035696;28;20800;-58
2023/07/01 12:57:46;;;;;;;2.60;1.90;;;;;;;;;;5035785;28;20481;-57
2023/07/01 13:00:14;;;;;;;4.47;2.20;;;;;;;;;;5035937;28;20485;-57
2023/07/01 13:02:43;;;;;;;4.40;3.33;;;;;;;;;;5035808;28;20866;-57
2023/07/01 13:05:12;;;;;;;2.53;2.33;;;;;;;;;;5035832;28;20549;-57
2023/07/01 13:07:39;;;;;;;2.50;2.30;;;;;;;;;;5035775;28;20528;-57
2023/07/01 13:10:07;;;;;;;2.20;2.00;;;;;;;;;;5035573;28;20446;-57
2023/07/01 13:12:36;;;;;;;2.20;2.03;;;;;;;;;;5035761;28;20445;-58
2023/07/01 13:15:06;;;;;;;4.10;2.23;;;;;;;;;;5035725;28;20879;-57
2023/07/01 13:17:37;;;;;;;2.47;2.17;;;;;;;;;;5035859;28;20442;-57
2023/07/01 13:20:06;;;;;;;4.50;2.70;;;;;;;;;;5035534;28;20659;-57
2023/07/01 13:22:33;;;;;;;3.43;2.40;;;;;;;;;;5035376;28;20460;-57
2023/07/01 13:24:59;;;;;;;3.07;2.30;;;;;;;;;;5035661;28;20541;-58
2023/07/01 13:27:26;;;;;;;2.23;2.00;;;;;;;;;;5035544;28;20544;-57
2023/07/01 13:29:55;;;;;;;2.50;2.20;;;;;;;;;;5034852;28;20456;-57
2023/07/01 13:32:23;;;;;;;2.63;1.80;;;;;;;;;;5035305;28;20480;-60
2023/07/01 13:34:51;;;;;;;2.63;2.43;;;;;;;;;;5035256;28;20485;-56
2023/07/01 13:37:19;;;;;;;2.10;1.90;;;;;;;;;;5034992;28;21129;-58
2023/07/01 13:39:48;;;;;;;2.40;2.20;;;;;;;;;;5035061;28;20485;-57
2023/07/01 13:42:16;;;;;;;2.60;2.20;;;;;;;;;;5035047;28;20449;-58
2023/07/01 13:44:43;;;;;;;2.90;2.30;;;;;;;;;;5035071;28;20536;-57
2023/07/01 13:47:13;;;;;;;2.90;2.03;;;;;;;;;;5035022;28;20446;-58
2023/07/01 13:49:40;;;;;;;3.93;2.30;;;;;;;;;;5034831;28;20503;-57
2023/07/01 13:52:07;;;;;;;4.90;2.40;;;;;;;;;;5035021;28;20446;-56
2023/07/01 13:54:35;;;;;;;3.53;2.67;;;;;;;;;;5034968;28;20540;-57
2023/07/01 13:57:02;;;;;;;2.20;2.10;;;;;;;;;;5034594;28;21078;-57
2023/07/01 13:59:30;;;;;;;2.40;2.30;;;;;;;;;;5034615;28;20576;-57
2023/07/01 14:02:01;;;;;;;3.00;2.57;;;;;;;;;;5034742;28;20450;-56
2023/07/01 14:04:31;;;;;;;2.10;2.00;;;;;;;;;;5034823;28;20557;-57
2023/07/01 14:06:58;;;;;;;5.50;3.30;;;;;;;;;;5034680;28;20457;-57
2023/07/01 14:09:26;;;;;;;2.47;2.27;;;;;;;;;;5034593;28;20556;-57
2023/07/01 14:11:53;;;;;;;2.50;2.30;;;;;;;;;;5034553;28;20549;-57
2023/07/01 14:14:20;;;;;;;2.70;2.50;;;;;;;;;;5034344;28;20483;-56
2023/07/01 14:16:49;;;;;;;3.13;2.40;;;;;;;;;;5034315;28;20884;-57
2023/07/01 14:19:16;;;;;;;2.77;2.57;;;;;;;;;;5034348;28;20508;-57
2023/07/01 14:21:47;;;;;;;4.23;2.77;;;;;;;;;;5034349;28;20449;-56
2023/07/01 14:24:19;;;;;;;2.87;2.67;;;;;;;;;;5034118;28;20976;-57
2023/07/01 14:26:48;;;;;;;2.17;1.97;;;;;;;;;;5034214;28;20889;-56
2023/07/01 14:29:16;;;;;;;2.10;2.00;;;;;;;;;;5034075;28;20450;-57
2023/07/01 14:31:46;;;;;;;2.83;2.60;;;;;;;;;;5034318;28;20806;-57
2023/07/01 14:34:13;;;;;;;3.00;2.47;;;;;;;;;;5034283;28;20454;-57
2023/07/01 14:36:41;;;;;;;5.97;3.30;;;;;;;;;;5034136;28;20533;-57
2023/07/01 14:39:09;;;;;;;3.50;2.87;;;;;;;;;;5033961;28;20577;-57
2023/07/01 14:41:37;;;;;;;3.40;2.20;;;;;;;;;;5032975;28;21015;-56
2023/07/01 14:44:05;;;;;;;4.50;3.93;;;;;;;;;;5033725;28;20540;-58
2023/07/01 14:46:32;;;;;;;5.07;3.80;;;;;;;;;;5033922;28;20500;-56
2023/07/01 14:48:59;;;;;;;4.03;3.07;;;;;;;;;;5033881;28;20540;-56
2023/07/01 14:51:27;;;;;;;2.60;2.40;;;;;;;;;;5033894;28;20537;-56